createdAt,value
2017-07-26T00:01:24.662Z,12.90
2017-07-26T00:03:53.580Z,13.00
2017-07-26T00:06:22.493Z,12.90
2017-07-26T00:08:51.407Z,12.90
2017-07-26T00:11:20.322Z,12.90
2017-07-26T00:13:49.280Z,12.80
2017-07-26T00:16:18.163Z,12.80
2017-07-26T00:18:47.088Z,12.80
2017-07-26T00:21:15.982Z,12.80
2017-07-26T00:23:44.890Z,12.80
2017-07-26T00:26:13.782Z,12.80
2017-07-26T00:28:42.695Z,12.80
2017-07-26T00:31:11.651Z,12.70
2017-07-26T00:33:40.876Z,12.80
2017-07-26T00:36:09.812Z,12.70
2017-07-26T00:38:38.746Z,12.70
2017-07-26T00:41:07.664Z,12.70
2017-07-26T00:43:36.530Z,12.70
2017-07-26T00:46:05.428Z,12.70
2017-07-26T00:48:34.309Z,12.70
2017-07-26T00:51:03.180Z,12.60
2017-07-26T00:53:32.046Z,12.60
2017-07-26T00:56:00.929Z,12.60
2017-07-26T00:58:29.835Z,12.60
2017-07-26T01:00:58.764Z,12.60
2017-07-26T01:03:27.652Z,12.60
2017-07-26T01:05:56.552Z,12.60
2017-07-26T01:08:25.435Z,12.60
2017-07-26T01:10:54.347Z,12.60
2017-07-26T01:13:23.363Z,12.60
2017-07-26T01:15:52.262Z,12.60
2017-07-26T01:18:21.144Z,12.60
2017-07-26T01:20:50.134Z,12.60
2017-07-26T01:23:19.053Z,12.60
2017-07-26T01:26:18.386Z,12.60
2017-07-26T01:28:47.320Z,12.60
2017-07-26T01:31:16.193Z,12.60
2017-07-26T01:33:45.094Z,12.60
2017-07-26T01:36:14.029Z,12.60
2017-07-26T01:38:42.916Z,12.60
2017-07-26T01:41:11.848Z,12.60
2017-07-26T01:43:40.752Z,12.60
2017-07-26T01:46:09.701Z,12.60
2017-07-26T01:48:38.615Z,12.60
2017-07-26T01:51:07.887Z,12.60
2017-07-26T01:53:37.058Z,12.60
2017-07-26T01:56:06.119Z,12.60
2017-07-26T01:58:35.103Z,12.60
2017-07-26T02:01:04.106Z,12.70
2017-07-26T02:03:32.998Z,12.70
2017-07-26T02:06:01.881Z,12.70
2017-07-26T02:08:30.763Z,12.70
2017-07-26T02:10:59.669Z,12.70
2017-07-26T02:13:28.534Z,12.70
2017-07-26T02:15:57.435Z,12.70
2017-07-26T02:18:26.376Z,12.70
2017-07-26T02:20:55.272Z,12.70
2017-07-26T02:23:24.199Z,12.70
2017-07-26T02:25:53.092Z,12.70
2017-07-26T02:28:21.999Z,12.70
2017-07-26T02:30:51.192Z,12.70
2017-07-26T02:33:20.121Z,12.70
2017-07-26T02:35:49.034Z,12.70
2017-07-26T02:38:17.924Z,12.70
2017-07-26T02:40:46.808Z,12.70
2017-07-26T02:44:35.060Z,12.70
2017-07-26T02:47:03.944Z,12.70
2017-07-26T02:49:33.067Z,12.70
2017-07-26T02:52:02.040Z,12.80
2017-07-26T02:54:30.930Z,12.70
2017-07-26T02:56:59.844Z,12.70
2017-07-26T02:59:28.718Z,12.80
2017-07-26T03:01:57.622Z,12.80
2017-07-26T03:04:26.553Z,12.70
2017-07-26T03:06:55.475Z,12.70
2017-07-26T03:09:24.414Z,12.80
2017-07-26T03:11:53.307Z,12.80
2017-07-26T03:14:22.198Z,12.70
2017-07-26T03:16:51.123Z,12.80
2017-07-26T03:19:20.043Z,12.80
2017-07-26T03:21:48.946Z,12.80
2017-07-26T03:24:18.155Z,12.80
2017-07-26T03:26:47.006Z,12.80
2017-07-26T03:29:15.896Z,12.80
2017-07-26T03:31:44.831Z,12.80
2017-07-26T03:34:13.744Z,12.80
2017-07-26T03:36:42.653Z,12.80
2017-07-26T03:39:11.575Z,12.80
2017-07-26T03:41:40.455Z,12.80
2017-07-26T03:44:09.414Z,12.80
2017-07-26T03:46:38.333Z,12.80
2017-07-26T03:50:26.624Z,12.80
2017-07-26T03:52:55.537Z,12.80
2017-07-26T03:55:24.414Z,12.80
2017-07-26T03:57:53.274Z,12.80
2017-07-26T04:00:22.268Z,12.80
2017-07-26T04:02:51.136Z,12.80
2017-07-26T04:05:20.033Z,12.80
2017-07-26T04:07:48.920Z,12.80
2017-07-26T04:10:17.847Z,12.80
2017-07-26T04:12:46.791Z,12.80
2017-07-26T04:15:15.703Z,12.80
2017-07-26T04:17:44.871Z,12.80
2017-07-26T04:20:13.739Z,12.80
2017-07-26T04:22:42.652Z,12.80
2017-07-26T04:25:11.539Z,12.80
2017-07-26T04:27:40.491Z,12.80
2017-07-26T04:30:09.694Z,12.80
2017-07-26T04:32:38.660Z,12.80
2017-07-26T04:35:07.562Z,12.80
2017-07-26T04:37:36.476Z,12.90
2017-07-26T04:40:05.460Z,12.90
2017-07-26T04:42:34.331Z,12.80
2017-07-26T04:45:03.252Z,12.90
2017-07-26T04:47:32.127Z,12.80
2017-07-26T04:50:01.110Z,12.80
2017-07-26T04:52:30.095Z,12.80
2017-07-26T04:54:59.024Z,12.80
2017-07-26T04:57:27.987Z,12.80
2017-07-26T04:59:56.883Z,12.90
2017-07-26T05:02:25.766Z,12.80
2017-07-26T05:04:54.649Z,12.80
2017-07-26T05:07:23.856Z,12.90
2017-07-26T05:09:52.839Z,12.90
2017-07-26T05:12:21.802Z,12.90
2017-07-26T05:14:50.772Z,12.90
2017-07-26T05:17:19.654Z,12.90
2017-07-26T05:19:48.815Z,12.90
2017-07-26T05:22:17.712Z,12.90
2017-07-26T05:24:46.676Z,13.00
2017-07-26T05:27:15.550Z,13.00
2017-07-26T05:29:44.494Z,13.00
2017-07-26T05:32:13.428Z,13.00
2017-07-26T05:34:48.994Z,13.00
2017-07-26T05:37:17.896Z,13.00
2017-07-26T05:39:46.803Z,13.00
2017-07-26T05:42:15.695Z,13.00
2017-07-26T05:44:44.594Z,13.00
2017-07-26T05:47:13.480Z,12.90
2017-07-26T05:49:42.427Z,13.00
2017-07-26T05:52:11.399Z,13.00
2017-07-26T05:54:40.363Z,13.00
2017-07-26T05:57:09.275Z,13.00
2017-07-26T05:59:38.181Z,13.00
2017-07-26T06:02:07.071Z,13.00
2017-07-26T06:04:35.980Z,13.00
2017-07-26T06:07:04.884Z,13.00
2017-07-26T06:09:33.809Z,13.00
2017-07-26T06:12:02.736Z,13.00
2017-07-26T06:14:31.616Z,13.00
2017-07-26T06:17:00.556Z,13.00
2017-07-26T06:19:29.496Z,13.00
2017-07-26T06:21:58.367Z,13.00
2017-07-26T06:24:27.302Z,13.00
2017-07-26T06:26:56.342Z,13.10
2017-07-26T06:29:25.271Z,13.00
2017-07-26T06:31:54.200Z,13.00
2017-07-26T06:34:23.166Z,13.10
2017-07-26T06:36:52.392Z,13.10
2017-07-26T06:39:21.299Z,13.10
2017-07-26T06:41:50.219Z,13.10
2017-07-26T06:44:19.131Z,13.10
2017-07-26T06:46:48.372Z,13.10
2017-07-26T06:49:17.755Z,13.20
2017-07-26T06:51:46.646Z,13.20
2017-07-26T06:54:15.590Z,13.10
2017-07-26T06:56:44.492Z,13.10
2017-07-26T06:59:13.392Z,13.10
2017-07-26T07:01:42.364Z,13.10
2017-07-26T07:04:11.335Z,13.10
2017-07-26T07:06:40.271Z,13.10
2017-07-26T07:09:09.251Z,13.10
2017-07-26T07:11:38.184Z,13.10
2017-07-26T07:14:07.061Z,13.00
2017-07-26T07:16:35.930Z,13.10
2017-07-26T07:19:04.875Z,13.10
2017-07-26T07:21:33.756Z,13.10
2017-07-26T07:24:02.743Z,13.10
2017-07-26T07:26:32.913Z,13.10
2017-07-26T07:29:01.875Z,13.10
2017-07-26T07:31:30.894Z,13.10
2017-07-26T07:33:59.872Z,13.00
2017-07-26T07:36:28.757Z,13.00
2017-07-26T07:38:57.704Z,13.00
2017-07-26T07:41:26.639Z,13.00
2017-07-26T07:43:55.555Z,13.00
2017-07-26T07:46:24.465Z,13.00
2017-07-26T07:48:53.456Z,13.00
2017-07-26T07:51:22.402Z,13.00
2017-07-26T07:53:51.354Z,13.00
2017-07-26T07:56:20.288Z,13.00
2017-07-26T07:58:49.228Z,13.00
2017-07-26T08:01:18.446Z,13.00
2017-07-26T08:03:47.363Z,13.00
2017-07-26T08:06:16.258Z,13.00
2017-07-26T08:08:45.153Z,13.00
2017-07-26T08:11:14.061Z,13.10
2017-07-26T08:13:43.026Z,13.10
2017-07-26T08:16:11.950Z,13.10
2017-07-26T08:18:41.004Z,13.10
2017-07-26T08:21:09.961Z,13.10
2017-07-26T08:23:38.891Z,13.00
2017-07-26T08:26:07.804Z,13.10
2017-07-26T08:28:36.755Z,13.00
2017-07-26T08:31:05.707Z,13.10
2017-07-26T08:33:34.658Z,13.10
2017-07-26T08:36:03.724Z,13.10
2017-07-26T08:38:32.731Z,13.10
2017-07-26T08:41:01.853Z,13.10
2017-07-26T08:43:30.732Z,13.20
2017-07-26T08:46:02.553Z,13.20
2017-07-26T08:48:31.536Z,13.30
2017-07-26T08:51:00.503Z,13.40
2017-07-26T08:53:29.559Z,13.30
2017-07-26T08:55:58.467Z,13.40
2017-07-26T08:58:27.383Z,13.50
2017-07-26T09:00:56.352Z,13.60
2017-07-26T09:03:25.291Z,13.70
2017-07-26T09:05:54.283Z,13.70
2017-07-26T09:08:23.226Z,13.80
2017-07-26T09:10:52.211Z,13.80
2017-07-26T09:13:21.198Z,13.70
2017-07-26T09:15:50.143Z,13.80
2017-07-26T09:18:19.078Z,13.80
2017-07-26T09:20:48.017Z,13.70
2017-07-26T09:23:16.966Z,13.70
2017-07-26T09:25:45.913Z,13.80
2017-07-26T09:28:14.870Z,13.90
2017-07-26T09:30:43.855Z,14.00
2017-07-26T09:33:12.884Z,14.00
2017-07-26T09:35:41.815Z,14.10
2017-07-26T09:38:10.830Z,14.10
2017-07-26T09:40:39.762Z,14.20
2017-07-26T09:43:09.563Z,14.20
2017-07-26T09:45:38.491Z,14.20
2017-07-26T09:48:07.452Z,14.30
2017-07-26T09:50:36.410Z,14.30
2017-07-26T09:53:05.347Z,14.40
2017-07-26T09:55:34.330Z,14.50
2017-07-26T09:58:03.615Z,14.40
2017-07-26T10:00:32.624Z,14.40
2017-07-26T10:03:01.644Z,14.30
2017-07-26T10:05:30.561Z,14.30
2017-07-26T10:09:01.851Z,14.20
2017-07-26T10:11:30.846Z,14.10
2017-07-26T10:13:59.773Z,14.00
2017-07-26T10:16:28.743Z,14.00
2017-07-26T10:18:57.663Z,14.00
2017-07-26T10:21:26.588Z,14.00
2017-07-26T10:23:55.536Z,14.00
2017-07-26T10:26:24.464Z,14.00
2017-07-26T10:28:53.475Z,14.00
2017-07-26T10:31:22.518Z,14.00
2017-07-26T10:33:51.458Z,14.10
2017-07-26T10:36:20.345Z,14.10
2017-07-26T10:38:49.620Z,14.20
2017-07-26T10:41:18.567Z,14.10
2017-07-26T10:43:47.531Z,14.20
2017-07-26T10:46:16.458Z,14.20
2017-07-26T10:48:45.420Z,14.20
2017-07-26T10:51:14.344Z,14.30
2017-07-26T10:53:43.370Z,14.30
2017-07-26T10:56:12.289Z,14.20
2017-07-26T10:58:41.258Z,14.20
2017-07-26T11:01:10.196Z,14.30
2017-07-26T11:03:39.204Z,14.30
2017-07-26T11:06:08.164Z,14.30
2017-07-26T11:08:37.146Z,14.40
2017-07-26T11:11:06.090Z,14.40
2017-07-26T11:13:35.098Z,14.40
2017-07-26T11:16:04.157Z,14.40
2017-07-26T11:18:33.187Z,14.50
2017-07-26T11:21:02.145Z,14.60
2017-07-26T11:23:31.320Z,14.60
2017-07-26T11:26:00.272Z,14.70
2017-07-26T11:28:29.190Z,14.80
2017-07-26T11:30:58.146Z,15.00
2017-07-26T11:33:27.079Z,15.10
2017-07-26T11:35:55.980Z,15.20
2017-07-26T11:38:24.950Z,15.40
2017-07-26T11:40:53.992Z,15.70
2017-07-26T11:43:22.945Z,16.00
2017-07-26T11:45:51.903Z,16.40
2017-07-26T11:48:20.790Z,16.70
2017-07-26T11:50:49.682Z,16.90
2017-07-26T11:53:18.644Z,17.10
2017-07-26T11:55:47.601Z,17.10
2017-07-26T11:58:16.524Z,17.20
2017-07-26T12:00:45.489Z,17.20
2017-07-26T12:03:14.492Z,17.30
2017-07-26T12:05:43.434Z,17.40
2017-07-26T12:08:12.424Z,17.30
2017-07-26T12:10:41.367Z,17.30
2017-07-26T12:13:10.361Z,17.20
2017-07-26T12:15:39.346Z,17.30
2017-07-26T12:18:08.299Z,17.40
2017-07-26T12:20:37.241Z,17.50
2017-07-26T12:23:06.249Z,17.70
2017-07-26T12:25:35.193Z,17.50
2017-07-26T12:28:04.174Z,17.50
2017-07-26T12:30:33.165Z,17.40
2017-07-26T12:33:02.127Z,17.20
2017-07-26T12:35:31.095Z,17.20
2017-07-26T12:38:00.010Z,17.00
2017-07-26T12:40:28.879Z,17.00
2017-07-26T12:42:57.853Z,17.00
2017-07-26T12:45:26.785Z,17.00
2017-07-26T12:47:55.714Z,17.00
2017-07-26T12:50:24.682Z,16.80
2017-07-26T12:52:53.647Z,16.80
2017-07-26T12:55:22.650Z,16.80
2017-07-26T12:57:51.586Z,16.80
2017-07-26T13:00:20.514Z,16.80
2017-07-26T13:02:49.452Z,17.00
2017-07-26T13:05:18.410Z,17.10
2017-07-26T13:07:47.363Z,17.10
2017-07-26T13:10:16.931Z,17.20
2017-07-26T13:12:45.934Z,17.30
2017-07-26T13:15:14.938Z,17.30
2017-07-26T13:17:43.945Z,17.40
2017-07-26T13:20:12.867Z,17.50
2017-07-26T13:22:41.829Z,17.50
2017-07-26T13:25:10.747Z,17.60
2017-07-26T13:27:39.755Z,17.60
2017-07-26T13:30:08.776Z,17.70
2017-07-26T13:32:37.715Z,17.50
2017-07-26T13:35:06.748Z,17.50
2017-07-26T13:37:35.770Z,17.40
2017-07-26T13:40:04.698Z,17.30
2017-07-26T13:42:33.641Z,17.20
2017-07-26T13:45:05.738Z,17.10
2017-07-26T13:47:34.724Z,17.00
2017-07-26T13:50:03.733Z,17.00
2017-07-26T13:52:32.659Z,17.00
2017-07-26T13:55:01.599Z,17.10
2017-07-26T13:57:30.544Z,17.10
2017-07-26T13:59:59.483Z,17.30
2017-07-26T14:02:28.788Z,17.50
2017-07-26T14:04:57.739Z,17.70
2017-07-26T14:07:26.723Z,18.10
2017-07-26T14:09:55.962Z,18.40
2017-07-26T14:12:25.010Z,18.80
2017-07-26T14:14:53.969Z,18.90
2017-07-26T14:17:23.694Z,19.10
2017-07-26T14:19:52.628Z,19.10
2017-07-26T14:22:21.649Z,19.10
2017-07-26T14:24:50.602Z,19.20
2017-07-26T14:27:19.817Z,19.10
2017-07-26T14:29:48.764Z,19.10
2017-07-26T14:32:17.758Z,19.20
2017-07-26T14:34:46.688Z,19.20
2017-07-26T14:37:15.665Z,19.20
2017-07-26T14:39:44.648Z,19.20
2017-07-26T14:42:13.623Z,19.00
2017-07-26T14:44:42.584Z,19.00
2017-07-26T14:47:11.545Z,18.80
2017-07-26T14:49:41.794Z,18.80
2017-07-26T14:52:10.898Z,18.90
2017-07-26T14:54:40.268Z,18.80
2017-07-26T14:57:09.181Z,18.80
2017-07-26T14:59:38.150Z,18.90
2017-07-26T15:02:07.283Z,18.90
2017-07-26T15:04:36.221Z,19.10
2017-07-26T15:07:05.173Z,19.20
2017-07-26T15:09:34.466Z,19.20
2017-07-26T15:12:03.398Z,19.20
2017-07-26T15:14:32.414Z,19.00
2017-07-26T15:17:01.361Z,18.90
2017-07-26T15:19:30.248Z,18.70
2017-07-26T15:21:59.262Z,18.60
2017-07-26T15:24:28.275Z,18.50
2017-07-26T15:26:57.292Z,18.50
2017-07-26T15:29:26.299Z,18.50
2017-07-26T15:32:02.025Z,18.50
2017-07-26T15:34:31.000Z,18.60
2017-07-26T15:36:59.950Z,18.60
2017-07-26T15:39:28.948Z,18.80
2017-07-26T15:41:57.916Z,18.80
2017-07-26T15:44:26.958Z,18.80
2017-07-26T15:46:55.973Z,18.90
2017-07-26T15:49:39.532Z,18.80
2017-07-26T15:52:08.927Z,18.70
2017-07-26T15:54:37.934Z,18.60
2017-07-26T15:57:07.042Z,18.40
2017-07-26T15:59:36.064Z,18.30
2017-07-26T16:02:05.067Z,18.20
2017-07-26T16:04:34.092Z,18.20
2017-07-26T16:07:03.108Z,18.10
2017-07-26T16:09:32.119Z,18.00
2017-07-26T16:12:04.296Z,17.90
2017-07-26T16:14:33.288Z,17.80
2017-07-26T16:17:02.635Z,17.80
2017-07-26T16:19:34.616Z,17.80
2017-07-26T16:22:03.586Z,17.90
2017-07-26T16:25:35.315Z,17.90
2017-07-26T16:28:04.361Z,18.00
2017-07-26T16:30:33.296Z,18.00
2017-07-26T16:33:02.412Z,18.10
2017-07-26T16:35:31.411Z,18.10
2017-07-26T16:38:00.476Z,18.00
2017-07-26T16:40:29.536Z,18.00
2017-07-26T16:42:58.486Z,18.00
2017-07-26T16:45:27.515Z,18.00
2017-07-26T16:47:56.564Z,18.00
2017-07-26T16:50:25.556Z,18.00
2017-07-26T16:52:54.498Z,18.00
2017-07-26T16:55:23.467Z,18.00
2017-07-26T16:57:52.499Z,18.00
2017-07-26T17:00:21.486Z,18.00
2017-07-26T17:02:50.475Z,17.90
2017-07-26T17:05:19.551Z,17.90
2017-07-26T17:07:48.507Z,17.90
2017-07-26T17:10:47.639Z,17.90
2017-07-26T17:13:16.652Z,17.80
2017-07-26T17:15:45.623Z,17.80
2017-07-26T17:18:14.586Z,17.70
2017-07-26T17:20:43.593Z,17.60
2017-07-26T17:23:12.598Z,17.60
2017-07-26T17:25:41.597Z,17.60
2017-07-26T17:28:10.556Z,17.60
2017-07-26T17:30:39.626Z,17.60
2017-07-26T17:33:08.723Z,17.70
2017-07-26T17:35:37.761Z,17.60
2017-07-26T17:39:09.335Z,17.60
2017-07-26T17:41:38.380Z,17.60
2017-07-26T17:44:07.365Z,17.50
2017-07-26T17:46:36.387Z,17.40
2017-07-26T17:49:05.660Z,17.40
2017-07-26T17:51:34.680Z,17.40
2017-07-26T17:54:03.672Z,17.30
2017-07-26T17:56:32.608Z,17.30
2017-07-26T17:59:01.596Z,17.30
2017-07-26T18:01:30.564Z,17.30
2017-07-26T18:03:59.583Z,17.30
2017-07-26T18:06:28.552Z,17.20
2017-07-26T18:08:57.527Z,17.30
2017-07-26T18:11:26.536Z,17.30
2017-07-26T18:13:55.537Z,17.30
2017-07-26T18:16:24.466Z,17.30
2017-07-26T18:18:53.484Z,17.30
2017-07-26T18:21:22.441Z,17.30
2017-07-26T18:23:51.389Z,17.30
2017-07-26T18:26:20.380Z,17.20
2017-07-26T18:28:49.399Z,17.30
2017-07-26T18:31:18.563Z,17.30
2017-07-26T18:34:50.073Z,17.30
2017-07-26T18:37:19.139Z,17.30
2017-07-26T18:39:48.347Z,17.20
2017-07-26T18:42:17.308Z,17.20
2017-07-26T18:44:46.377Z,17.10
2017-07-26T18:47:15.363Z,17.10
2017-07-26T18:49:44.304Z,17.00
2017-07-26T18:52:13.312Z,17.00
2017-07-26T18:54:42.403Z,16.90
2017-07-26T18:57:11.535Z,16.80
2017-07-26T18:59:40.534Z,16.80
2017-07-26T19:02:09.734Z,16.70
2017-07-26T19:04:38.748Z,16.60
2017-07-26T19:07:07.708Z,16.50
2017-07-26T19:09:36.670Z,16.50
2017-07-26T19:12:05.728Z,16.40
2017-07-26T19:14:34.779Z,16.30
2017-07-26T19:17:04.070Z,16.30
2017-07-26T19:19:33.203Z,16.20
2017-07-26T19:22:02.198Z,16.10
2017-07-26T19:24:31.181Z,16.00
2017-07-26T19:27:00.192Z,16.00
2017-07-26T19:29:29.299Z,16.00
2017-07-26T19:31:58.419Z,16.00
2017-07-26T19:34:27.396Z,16.00
2017-07-26T19:36:56.476Z,16.00
2017-07-26T19:39:25.416Z,16.10
2017-07-26T19:41:54.407Z,16.10
2017-07-26T19:44:23.335Z,16.10
2017-07-26T19:46:52.320Z,16.10
2017-07-26T19:49:21.238Z,16.20
2017-07-26T19:51:50.254Z,16.20
2017-07-26T19:54:19.208Z,16.30
2017-07-26T19:56:48.245Z,16.20
2017-07-26T19:59:18.815Z,16.20
2017-07-26T20:01:47.836Z,16.20
2017-07-26T20:04:16.890Z,16.10
2017-07-26T20:06:45.871Z,16.10
2017-07-26T20:09:14.785Z,16.10
2017-07-26T20:11:43.716Z,16.10
2017-07-26T20:14:12.751Z,16.00
2017-07-26T20:16:41.834Z,15.90
2017-07-26T20:19:10.790Z,15.90
2017-07-26T20:21:40.430Z,15.80
2017-07-26T20:24:09.492Z,15.80
2017-07-26T20:26:38.600Z,15.80
2017-07-26T20:30:09.984Z,15.70
2017-07-26T20:32:39.577Z,15.70
2017-07-26T20:35:08.601Z,15.60
2017-07-26T20:37:37.603Z,15.60
2017-07-26T20:40:06.634Z,15.60
2017-07-26T20:42:35.607Z,15.70
2017-07-26T20:45:04.577Z,15.60
2017-07-26T20:47:33.623Z,15.70
2017-07-26T20:50:02.572Z,15.70
2017-07-26T20:52:31.493Z,15.60
2017-07-26T20:55:00.547Z,15.60
2017-07-26T20:57:29.511Z,15.60
2017-07-26T20:59:58.561Z,15.50
2017-07-26T21:02:27.583Z,15.50
2017-07-26T21:04:56.550Z,15.40
2017-07-26T21:07:25.501Z,15.50
2017-07-26T21:09:54.455Z,15.40
2017-07-26T21:12:23.499Z,15.40
2017-07-26T21:14:52.569Z,15.30
2017-07-26T21:17:21.502Z,15.30
2017-07-26T21:19:50.518Z,15.20
2017-07-26T21:22:19.479Z,15.20
2017-07-26T21:24:48.373Z,15.10
2017-07-26T21:27:17.370Z,15.00
2017-07-26T21:29:46.329Z,15.00
2017-07-26T21:32:15.389Z,15.00
2017-07-26T21:34:44.326Z,14.90
2017-07-26T21:37:13.340Z,14.90
2017-07-26T21:39:42.959Z,14.90
2017-07-26T21:42:11.960Z,14.90
2017-07-26T21:44:40.847Z,14.80
2017-07-26T21:47:09.828Z,14.90
2017-07-26T21:49:38.797Z,15.00
2017-07-26T21:52:07.770Z,15.00
2017-07-26T21:54:36.698Z,15.00
2017-07-26T21:57:05.658Z,15.00
2017-07-26T22:00:37.298Z,15.00
2017-07-26T22:03:06.313Z,15.00
2017-07-26T22:05:35.228Z,15.00
2017-07-26T22:08:04.211Z,15.00
2017-07-26T22:10:33.187Z,15.00
2017-07-26T22:13:02.144Z,15.00
2017-07-26T22:15:31.134Z,15.00
2017-07-26T22:19:02.620Z,14.90
2017-07-26T22:21:31.571Z,14.90
2017-07-26T22:24:00.527Z,14.90
2017-07-26T22:26:29.482Z,14.90
2017-07-26T22:28:58.408Z,14.90
2017-07-26T22:31:27.314Z,14.90
2017-07-26T22:33:56.218Z,14.90
2017-07-26T22:36:25.150Z,14.90
2017-07-26T22:38:54.100Z,14.90
2017-07-26T22:41:23.009Z,14.90
2017-07-26T22:43:52.235Z,14.90
2017-07-26T22:46:21.143Z,14.80
2017-07-26T22:48:50.079Z,14.90
2017-07-26T22:51:19.029Z,14.90
2017-07-26T22:53:47.968Z,14.90
2017-07-26T22:56:16.858Z,14.80
2017-07-26T22:58:45.822Z,14.90
2017-07-26T23:01:14.700Z,14.90
2017-07-26T23:03:43.653Z,14.80
2017-07-26T23:06:15.496Z,14.80
2017-07-26T23:08:44.456Z,14.90
2017-07-26T23:11:13.396Z,14.90
2017-07-26T23:13:42.319Z,14.80
2017-07-26T23:16:11.208Z,14.70
2017-07-26T23:18:40.972Z,14.60
2017-07-26T23:21:09.875Z,14.50
2017-07-26T23:24:58.257Z,14.60
2017-07-26T23:27:27.171Z,14.60
2017-07-26T23:29:56.052Z,14.60
2017-07-26T23:32:24.906Z,14.60
2017-07-26T23:34:54.118Z,14.50
2017-07-26T23:37:23.043Z,14.50
2017-07-26T23:39:51.967Z,14.40
2017-07-26T23:42:20.941Z,14.30
2017-07-26T23:44:49.842Z,14.30
2017-07-26T23:47:18.737Z,14.20
